createdAt,value
2019-02-10T00:00:48.773Z,64.44
2019-02-10T00:03:17.164Z,64.44
2019-02-10T00:05:45.880Z,64.17
2019-02-10T00:08:14.702Z,64.21
2019-02-10T00:10:43.087Z,64.21
2019-02-10T00:13:23.056Z,64.18
2019-02-10T00:15:51.452Z,64.22
2019-02-10T00:18:20.553Z,64.26
2019-02-10T00:20:49.673Z,64.10
2019-02-10T00:23:18.065Z,64.10
2019-02-10T00:25:46.452Z,64.12
2019-02-10T00:28:15.040Z,63.97
2019-02-10T00:30:43.423Z,64.11
2019-02-10T00:33:12.207Z,64.00
2019-02-10T00:35:40.864Z,63.94
2019-02-10T00:38:09.368Z,64.07
2019-02-10T00:40:38.039Z,63.93
2019-02-10T00:43:06.502Z,64.26
2019-02-10T00:45:35.173Z,64.26
2019-02-10T00:48:03.683Z,63.88
2019-02-10T00:50:32.367Z,64.17
2019-02-10T00:53:01.162Z,64.18
2019-02-10T00:55:29.548Z,64.18
2019-02-10T00:57:58.048Z,64.02
2019-02-10T01:00:26.675Z,63.89
2019-02-10T01:02:55.197Z,63.95
2019-02-10T01:05:23.605Z,63.84
2019-02-10T01:07:52.229Z,64.20
2019-02-10T01:10:21.100Z,64.08
2019-02-10T01:12:49.533Z,64.03
2019-02-10T01:15:18.715Z,64.03
2019-02-10T01:17:47.413Z,63.86
2019-02-10T01:20:16.091Z,63.86
2019-02-10T01:22:44.775Z,63.88
2019-02-10T01:25:13.336Z,64.63
2019-02-10T01:27:42.059Z,64.63
2019-02-10T01:30:15.217Z,64.62
2019-02-10T01:32:44.133Z,65.00
2019-02-10T01:35:13.433Z,65.19
2019-02-10T01:37:42.224Z,65.19
2019-02-10T01:40:11.459Z,65.30
2019-02-10T01:42:40.097Z,65.51
2019-02-10T01:45:11.551Z,65.65
2019-02-10T01:47:40.240Z,65.91
2019-02-10T01:50:12.106Z,65.91
2019-02-10T01:52:40.503Z,66.26
2019-02-10T01:55:13.881Z,66.21
2019-02-10T01:57:42.747Z,66.21
2019-02-10T02:00:15.952Z,66.50
2019-02-10T02:02:44.567Z,66.37
2019-02-10T02:05:12.952Z,66.55
2019-02-10T02:07:41.359Z,66.24
2019-02-10T02:10:12.862Z,66.32
2019-02-10T02:12:41.893Z,66.18
2019-02-10T02:15:16.625Z,66.16
2019-02-10T02:17:45.028Z,66.16
2019-02-10T02:20:14.352Z,65.89
2019-02-10T02:22:43.038Z,66.14
2019-02-10T02:25:13.241Z,65.97
2019-02-10T02:27:41.896Z,65.97
2019-02-10T02:30:12.713Z,66.03
2019-02-10T02:32:41.782Z,66.03
2019-02-10T02:35:10.455Z,65.62
2019-02-10T02:37:39.155Z,66.82
2019-02-10T02:40:10.211Z,66.82
2019-02-10T02:42:39.086Z,68.05
2019-02-10T02:45:10.468Z,70.69
2019-02-10T02:47:39.126Z,71.91
2019-02-10T02:50:10.505Z,71.91
2019-02-10T02:52:39.577Z,73.58
2019-02-10T02:55:09.790Z,74.88
2019-02-10T02:57:38.415Z,76.61
2019-02-10T03:00:10.672Z,76.61
2019-02-10T03:02:39.651Z,77.42
2019-02-10T03:05:09.886Z,77.67
2019-02-10T03:07:38.248Z,77.67
2019-02-10T03:10:08.259Z,77.96
2019-02-10T03:12:36.870Z,78.56
2019-02-10T03:15:07.918Z,78.88
2019-02-10T03:17:36.571Z,78.88
2019-02-10T03:20:06.986Z,78.96
2019-02-10T03:22:35.692Z,79.25
2019-02-10T03:25:05.805Z,79.57
2019-02-10T03:27:34.497Z,79.49
2019-02-10T03:30:03.318Z,80.22
2019-02-10T03:32:31.891Z,80.22
2019-02-10T03:35:00.552Z,80.93
2019-02-10T03:37:29.230Z,80.93
2019-02-10T03:39:57.644Z,81.12
2019-02-10T03:42:26.103Z,81.24
2019-02-10T03:44:54.581Z,81.07
2019-02-10T03:47:23.261Z,81.24
2019-02-10T03:49:51.651Z,81.18
2019-02-10T03:52:20.042Z,81.21
2019-02-10T03:54:48.588Z,81.17
2019-02-10T03:57:16.986Z,81.21
2019-02-10T03:59:45.666Z,81.35
2019-02-10T04:02:14.558Z,81.77
2019-02-10T04:04:42.947Z,81.60
2019-02-10T04:07:11.441Z,81.52
2019-02-10T04:09:39.826Z,81.80
2019-02-10T04:12:08.206Z,81.80
2019-02-10T04:14:36.603Z,81.97
2019-02-10T04:17:05.117Z,81.84
2019-02-10T04:19:33.520Z,81.84
2019-02-10T04:22:01.915Z,81.92
2019-02-10T04:24:30.301Z,81.78
2019-02-10T04:26:58.684Z,81.78
2019-02-10T04:29:27.083Z,81.68
2019-02-10T04:31:55.819Z,81.90
2019-02-10T04:34:24.205Z,82.11
2019-02-10T04:36:52.599Z,82.27
2019-02-10T04:39:21.276Z,82.10
2019-02-10T04:41:49.722Z,82.08
2019-02-10T04:44:18.554Z,82.13
2019-02-10T04:46:47.131Z,82.48
2019-02-10T04:49:15.518Z,82.48
2019-02-10T04:51:44.161Z,82.23
2019-02-10T04:54:12.866Z,82.49
2019-02-10T04:56:41.552Z,82.49
2019-02-10T04:59:10.149Z,82.39
2019-02-10T05:01:39.028Z,82.57
2019-02-10T05:04:07.635Z,82.57
2019-02-10T05:06:36.277Z,82.79
2019-02-10T05:09:05.410Z,82.79
2019-02-10T05:11:33.793Z,82.23
2019-02-10T05:14:02.457Z,82.23
2019-02-10T05:16:31.151Z,82.19
2019-02-10T05:18:59.537Z,82.32
2019-02-10T05:21:28.032Z,82.25
2019-02-10T05:24:03.076Z,82.25
2019-02-10T05:26:26.721Z,82.62
2019-02-10T05:28:55.214Z,82.62
2019-02-10T05:31:23.875Z,82.14
2019-02-10T05:33:52.263Z,82.14
2019-02-10T05:36:20.894Z,82.08
2019-02-10T05:38:49.524Z,82.48
2019-02-10T05:41:17.923Z,82.48
2019-02-10T05:43:46.327Z,82.38
2019-02-10T05:46:14.714Z,82.35
2019-02-10T05:48:43.118Z,82.61
2019-02-10T05:51:11.501Z,82.39
2019-02-10T05:53:40.008Z,82.79
2019-02-10T05:56:08.789Z,82.79
2019-02-10T05:58:37.175Z,82.39
2019-02-10T06:01:41.877Z,82.46
2019-02-10T06:04:10.452Z,82.46
2019-02-10T06:06:39.171Z,82.50
2019-02-10T06:09:07.573Z,82.50
2019-02-10T06:11:36.236Z,82.70
2019-02-10T06:14:04.954Z,82.86
2019-02-10T06:16:33.384Z,82.69
2019-02-10T06:19:02.100Z,82.74
2019-02-10T06:21:31.092Z,82.82
2019-02-10T06:23:59.482Z,82.78
2019-02-10T06:26:27.922Z,82.69
2019-02-10T06:28:56.420Z,82.47
2019-02-10T06:31:24.808Z,82.47
2019-02-10T06:33:53.696Z,82.50
2019-02-10T06:36:22.097Z,82.69
2019-02-10T06:38:50.484Z,82.46
2019-02-10T06:41:19.281Z,82.46
2019-02-10T06:43:47.661Z,82.47
2019-02-10T06:46:16.043Z,82.68
2019-02-10T06:48:44.439Z,82.76
2019-02-10T06:51:12.884Z,82.72
2019-02-10T06:53:41.371Z,82.42
2019-02-10T06:56:09.872Z,82.78
2019-02-10T06:58:38.256Z,82.78
2019-02-10T07:01:08.629Z,82.79
2019-02-10T07:03:44.268Z,82.69
2019-02-10T07:06:14.623Z,82.76
2019-02-10T07:08:43.394Z,82.72
2019-02-10T07:11:12.076Z,82.72
2019-02-10T07:13:49.112Z,82.71
2019-02-10T07:16:40.304Z,82.37
2019-02-10T07:19:34.693Z,82.37
2019-02-10T07:22:34.781Z,82.43
2019-02-10T07:25:18.437Z,82.27
2019-02-10T07:28:01.972Z,82.10
2019-02-10T07:30:39.380Z,82.10
2019-02-10T07:33:10.949Z,82.06
2019-02-10T07:35:51.622Z,81.96
2019-02-10T07:38:50.413Z,81.40
2019-02-10T07:41:38.960Z,81.40
2019-02-10T07:44:19.493Z,81.06
2019-02-10T07:47:16.867Z,80.72
2019-02-10T07:49:53.918Z,80.46
2019-02-10T07:52:28.371Z,80.46
2019-02-10T07:55:18.741Z,79.73
2019-02-10T07:57:50.190Z,79.54
2019-02-10T08:00:21.943Z,79.54
2019-02-10T08:03:14.728Z,79.57
2019-02-10T08:05:52.003Z,79.57
2019-02-10T08:08:46.301Z,78.54
2019-02-10T08:11:23.769Z,78.58
2019-02-10T08:14:01.043Z,78.29
2019-02-10T08:16:41.557Z,78.27
2019-02-10T08:19:28.324Z,77.73
2019-02-10T08:22:11.564Z,77.73
2019-02-10T08:24:55.198Z,77.73
2019-02-10T08:27:41.341Z,76.98
2019-02-10T08:30:33.328Z,76.89
2019-02-10T08:33:10.983Z,76.89
2019-02-10T08:35:54.590Z,76.40
2019-02-10T08:38:28.680Z,76.49
2019-02-10T08:41:33.326Z,76.46
2019-02-10T08:44:14.457Z,76.46
2019-02-10T08:46:51.758Z,76.28
2019-02-10T08:49:46.759Z,76.12
2019-02-10T08:52:29.772Z,76.12
2019-02-10T08:54:59.273Z,76.10
2019-02-10T08:57:27.668Z,76.10
2019-02-10T08:59:56.224Z,76.52
2019-02-10T09:02:24.716Z,76.45
2019-02-10T09:04:53.135Z,76.22
2019-02-10T09:07:21.604Z,76.22
2019-02-10T09:09:53.168Z,76.35
2019-02-10T09:12:21.687Z,76.76
2019-02-10T09:14:50.412Z,76.82
2019-02-10T09:17:18.908Z,77.19
2019-02-10T09:19:47.318Z,77.46
2019-02-10T09:22:15.708Z,77.59
2019-02-10T09:24:44.099Z,78.22
2019-02-10T09:27:12.602Z,78.43
2019-02-10T09:29:40.980Z,78.85
2019-02-10T09:32:09.611Z,79.05
2019-02-10T09:34:38.010Z,79.30
2019-02-10T09:37:07.547Z,79.47
2019-02-10T09:39:36.122Z,79.75
2019-02-10T09:42:07.532Z,79.63
2019-02-10T09:44:37.116Z,79.77
2019-02-10T09:47:05.692Z,79.77
2019-02-10T09:49:34.388Z,79.99
2019-02-10T09:52:02.694Z,80.01
2019-02-10T09:54:31.139Z,80.22
2019-02-10T09:56:59.639Z,80.35
2019-02-10T09:59:28.049Z,80.37
2019-02-10T10:01:56.440Z,80.31
2019-02-10T10:04:24.981Z,80.69
2019-02-10T10:06:53.445Z,80.74
2019-02-10T10:09:21.867Z,80.88
2019-02-10T10:11:50.271Z,81.01
2019-02-10T10:14:19.769Z,80.99
2019-02-10T10:16:48.572Z,81.06
2019-02-10T10:19:16.970Z,81.04
2019-02-10T10:21:45.367Z,80.83
2019-02-10T10:24:13.785Z,81.02
2019-02-10T10:26:42.169Z,81.06
2019-02-10T10:29:10.566Z,80.92
2019-02-10T10:31:39.092Z,81.16
2019-02-10T10:34:07.538Z,81.21
2019-02-10T10:36:36.051Z,81.36
2019-02-10T10:39:05.885Z,81.31
2019-02-10T10:41:34.271Z,81.05
2019-02-10T10:44:02.672Z,80.81
2019-02-10T10:46:31.056Z,80.58
2019-02-10T10:48:59.469Z,80.64
2019-02-10T10:51:27.852Z,80.68
2019-02-10T10:53:56.240Z,80.60
2019-02-10T10:56:24.680Z,80.43
2019-02-10T10:58:53.063Z,80.35
2019-02-10T11:01:25.306Z,80.43
2019-02-10T11:03:51.691Z,80.33
2019-02-10T11:06:20.172Z,80.29
2019-02-10T11:08:48.551Z,80.46
2019-02-10T11:11:17.388Z,80.39
2019-02-10T11:13:46.117Z,80.50
2019-02-10T11:16:14.578Z,80.39
2019-02-10T11:18:43.058Z,80.55
2019-02-10T11:21:13.645Z,80.47
2019-02-10T11:23:42.666Z,80.48
2019-02-10T11:26:11.264Z,80.65
2019-02-10T11:28:39.691Z,80.90
2019-02-10T11:31:08.237Z,80.50
2019-02-10T11:33:36.627Z,79.88
2019-02-10T11:36:05.464Z,78.97
2019-02-10T11:38:33.912Z,78.90
2019-02-10T11:41:02.369Z,78.61
2019-02-10T11:43:30.850Z,78.78
2019-02-10T11:45:59.245Z,78.78
2019-02-10T11:48:27.742Z,78.68
2019-02-10T11:50:56.321Z,79.13
2019-02-10T11:53:25.026Z,79.11
2019-02-10T11:55:53.407Z,79.37
2019-02-10T11:58:21.950Z,79.37
2019-02-10T12:00:50.329Z,79.39
2019-02-10T12:03:18.715Z,79.76
2019-02-10T12:05:47.405Z,79.58
2019-02-10T12:08:15.788Z,79.58
2019-02-10T12:10:44.381Z,79.64
2019-02-10T12:13:12.780Z,79.51
2019-02-10T12:15:41.254Z,79.51
2019-02-10T12:18:09.778Z,80.15
2019-02-10T12:20:38.195Z,79.89
2019-02-10T12:23:06.569Z,79.62
2019-02-10T12:25:35.272Z,79.59
2019-02-10T12:28:03.650Z,79.59
2019-02-10T12:30:32.444Z,79.68
2019-02-10T12:33:00.887Z,79.65
2019-02-10T12:35:29.271Z,79.68
2019-02-10T12:37:57.963Z,79.33
2019-02-10T12:40:26.358Z,79.33
2019-02-10T12:42:54.759Z,79.02
2019-02-10T12:45:23.334Z,78.38
2019-02-10T12:47:51.736Z,78.84
2019-02-10T12:50:20.188Z,79.33
2019-02-10T12:52:48.771Z,79.51
2019-02-10T12:55:17.151Z,79.51
2019-02-10T12:57:45.552Z,79.67
2019-02-10T13:00:18.370Z,79.84
2019-02-10T13:02:47.171Z,79.84
2019-02-10T13:05:15.647Z,80.06
2019-02-10T13:07:44.165Z,79.77
2019-02-10T13:10:17.500Z,79.77
2019-02-10T13:12:44.506Z,79.86
2019-02-10T13:15:14.793Z,79.84
2019-02-10T13:17:43.192Z,79.29
2019-02-10T13:20:14.727Z,79.29
2019-02-10T13:22:43.135Z,79.70
2019-02-10T13:25:12.856Z,79.92
2019-02-10T13:27:41.244Z,79.93
2019-02-10T13:30:14.982Z,79.93
2019-02-10T13:32:43.373Z,79.12
2019-02-10T13:35:12.099Z,79.35
2019-02-10T13:37:40.895Z,79.35
2019-02-10T13:40:16.948Z,79.24
2019-02-10T13:42:46.027Z,78.87
2019-02-10T13:45:14.409Z,78.81
2019-02-10T13:47:42.795Z,77.97
2019-02-10T13:50:14.073Z,77.97
2019-02-10T13:52:42.497Z,78.19
2019-02-10T13:55:13.297Z,78.07
2019-02-10T13:57:41.902Z,78.23
2019-02-10T14:00:15.859Z,78.08
2019-02-10T14:02:44.257Z,78.39
2019-02-10T14:05:12.849Z,77.76
2019-02-10T14:07:41.229Z,78.18
2019-02-10T14:10:14.767Z,78.10
2019-02-10T14:12:43.156Z,78.10
2019-02-10T14:15:19.762Z,78.48
2019-02-10T14:17:48.525Z,78.09
2019-02-10T14:20:18.255Z,77.85
2019-02-10T14:22:46.802Z,77.85
2019-02-10T14:25:15.200Z,78.06
2019-02-10T14:27:43.663Z,78.11
2019-02-10T14:30:16.840Z,77.91
2019-02-10T14:32:45.140Z,77.91
2019-02-10T14:35:13.847Z,78.22
2019-02-10T14:37:42.725Z,78.22
2019-02-10T14:40:11.655Z,78.31
2019-02-10T14:42:40.050Z,78.75
2019-02-10T14:45:13.724Z,78.40
2019-02-10T14:47:42.275Z,78.31
2019-02-10T14:50:16.323Z,77.63
2019-02-10T14:52:44.763Z,77.72
2019-02-10T14:55:14.375Z,77.72
2019-02-10T14:57:42.788Z,78.36
2019-02-10T15:00:15.911Z,77.69
2019-02-10T15:02:44.361Z,77.36
2019-02-10T15:05:12.891Z,75.90
2019-02-10T15:07:41.417Z,75.36
2019-02-10T15:10:17.575Z,75.11
2019-02-10T15:12:45.963Z,74.74
2019-02-10T15:15:14.394Z,74.87
2019-02-10T15:17:42.838Z,74.58
2019-02-10T15:20:12.256Z,74.58
2019-02-10T15:22:40.736Z,74.50
2019-02-10T15:25:11.445Z,74.95
2019-02-10T15:27:43.994Z,74.01
2019-02-10T15:30:17.274Z,74.16
2019-02-10T15:32:45.858Z,74.34
2019-02-10T15:35:14.329Z,74.97
2019-02-10T15:37:42.803Z,74.77
2019-02-10T15:40:13.249Z,75.26
2019-02-10T15:42:45.138Z,75.38
2019-02-10T15:45:14.530Z,76.71
2019-02-10T15:47:43.072Z,76.71
2019-02-10T15:50:14.130Z,76.85
2019-02-10T15:52:42.505Z,77.33
2019-02-10T15:55:14.710Z,77.17
2019-02-10T15:57:43.387Z,77.08
2019-02-10T16:00:20.410Z,77.13
2019-02-10T16:02:48.819Z,77.37
2019-02-10T16:05:17.347Z,76.95
2019-02-10T16:07:45.848Z,76.23
2019-02-10T16:10:14.323Z,76.33
2019-02-10T16:12:42.857Z,75.62
2019-02-10T16:15:12.724Z,75.91
2019-02-10T16:17:41.205Z,75.91
2019-02-10T16:20:14.738Z,75.76
2019-02-10T16:22:43.222Z,75.69
2019-02-10T16:25:11.839Z,74.72
2019-02-10T16:27:40.647Z,75.46
2019-02-10T16:30:14.777Z,74.72
2019-02-10T16:32:49.728Z,75.48
2019-02-10T16:35:13.481Z,75.17
2019-02-10T16:37:42.074Z,75.02
2019-02-10T16:40:16.204Z,74.69
2019-02-10T16:42:44.774Z,74.83
2019-02-10T16:45:14.240Z,74.83
2019-02-10T16:47:42.842Z,75.22
2019-02-10T16:50:15.779Z,75.38
2019-02-10T16:52:44.631Z,75.64
2019-02-10T16:55:19.108Z,75.47
2019-02-10T16:57:47.683Z,75.47
2019-02-10T17:00:17.163Z,75.03
2019-02-10T17:02:45.940Z,74.36
2019-02-10T17:05:14.493Z,74.62
2019-02-10T17:07:43.022Z,73.66
2019-02-10T17:10:16.172Z,73.61
2019-02-10T17:12:45.309Z,73.63
2019-02-10T17:15:14.484Z,73.63
2019-02-10T17:17:43.528Z,73.37
2019-02-10T17:20:13.170Z,73.37
2019-02-10T17:22:42.149Z,72.20
2019-02-10T17:25:14.190Z,71.79
2019-02-10T17:27:43.042Z,72.41
2019-02-10T17:30:14.086Z,72.41
2019-02-10T17:32:43.778Z,71.79
2019-02-10T17:35:14.087Z,72.43
2019-02-10T17:37:42.467Z,72.32
2019-02-10T17:40:20.089Z,71.61
2019-02-10T17:42:48.473Z,71.99
2019-02-10T17:45:16.861Z,71.99
2019-02-10T17:47:45.324Z,71.97
2019-02-10T17:50:13.927Z,71.02
2019-02-10T17:52:44.071Z,71.47
2019-02-10T17:55:12.496Z,71.99
2019-02-10T17:57:41.119Z,71.93
2019-02-10T18:00:15.564Z,71.79
2019-02-10T18:02:44.042Z,72.24
2019-02-10T18:05:12.715Z,71.91
2019-02-10T18:07:41.495Z,71.32
2019-02-10T18:10:12.577Z,71.08
2019-02-10T18:12:41.472Z,71.96
2019-02-10T18:15:13.587Z,72.58
2019-02-10T18:18:00.291Z,73.42
2019-02-10T18:20:39.786Z,73.60
2019-02-10T18:23:10.015Z,74.27
2019-02-10T18:25:40.051Z,74.33
2019-02-10T18:28:12.659Z,74.15
2019-02-10T18:30:58.077Z,74.27
2019-02-10T18:33:28.103Z,73.84
2019-02-10T18:35:58.420Z,73.60
2019-02-10T18:38:28.468Z,73.34
2019-02-10T18:40:58.501Z,72.51
2019-02-10T18:43:31.188Z,72.58
2019-02-10T18:46:01.237Z,72.20
2019-02-10T18:48:31.285Z,72.65
2019-02-10T18:51:01.421Z,72.42
2019-02-10T18:53:31.710Z,73.03
2019-02-10T18:56:04.426Z,73.03
2019-02-10T18:58:40.492Z,73.27
2019-02-10T19:01:10.816Z,73.27
2019-02-10T19:03:43.618Z,73.72
2019-02-10T19:06:14.332Z,73.93
2019-02-10T19:08:44.440Z,73.67
2019-02-10T19:11:14.508Z,74.02
2019-02-10T19:13:45.140Z,74.12
2019-02-10T19:16:24.590Z,74.76
2019-02-10T19:18:57.296Z,74.59
2019-02-10T19:21:30.078Z,74.17
2019-02-10T19:24:16.734Z,74.83
2019-02-10T19:27:03.094Z,75.07
2019-02-10T19:29:33.133Z,75.37
2019-02-10T19:32:19.153Z,75.89
2019-02-10T19:34:54.833Z,76.40
2019-02-10T19:37:31.360Z,77.06
2019-02-10T19:40:04.281Z,77.60
2019-02-10T19:42:46.154Z,78.17
2019-02-10T19:45:22.000Z,78.26
2019-02-10T19:48:01.388Z,78.49
2019-02-10T19:50:47.617Z,79.14
2019-02-10T19:53:20.604Z,79.67
2019-02-10T19:56:05.700Z,80.20
2019-02-10T19:58:53.755Z,79.84
2019-02-10T20:01:39.903Z,80.38
2019-02-10T20:04:25.322Z,80.83
2019-02-10T20:07:01.385Z,81.01
2019-02-10T20:09:34.072Z,80.97
2019-02-10T20:12:20.544Z,81.20
2019-02-10T20:14:56.343Z,81.26
2019-02-10T20:17:32.076Z,81.37
2019-02-10T20:20:19.348Z,81.33
2019-02-10T20:22:55.511Z,81.28
2019-02-10T20:25:37.567Z,81.17
2019-02-10T20:28:13.114Z,80.93
2019-02-10T20:31:05.957Z,80.86
2019-02-10T20:33:36.570Z,81.02
2019-02-10T20:36:06.603Z,81.29
2019-02-10T20:38:53.028Z,80.98
2019-02-10T20:41:32.939Z,81.77
2019-02-10T20:44:09.149Z,81.47
2019-02-10T20:46:39.280Z,81.46
2019-02-10T20:49:15.595Z,81.50
2019-02-10T20:51:54.636Z,81.68
2019-02-10T20:54:24.676Z,82.05
2019-02-10T20:57:09.492Z,82.22
2019-02-10T20:59:54.275Z,82.52
2019-02-10T21:02:33.375Z,82.55
2019-02-10T21:05:03.410Z,82.32
2019-02-10T21:07:33.551Z,82.55
2019-02-10T21:10:19.843Z,82.94
2019-02-10T21:12:52.629Z,83.02
2019-02-10T21:15:38.769Z,83.11
2019-02-10T21:18:23.897Z,83.04
2019-02-10T21:21:02.635Z,83.24
2019-02-10T21:23:41.991Z,83.23
2019-02-10T21:26:17.825Z,83.22
2019-02-10T21:28:50.841Z,83.23
2019-02-10T21:31:21.164Z,82.83
2019-02-10T21:33:57.002Z,83.21
2019-02-10T21:36:30.095Z,83.57
2019-02-10T21:39:16.628Z,83.15
2019-02-10T21:41:52.275Z,83.46
2019-02-10T21:44:22.676Z,83.53
2019-02-10T21:46:55.968Z,83.16
2019-02-10T21:49:24.428Z,83.37
2019-02-10T21:51:53.174Z,83.82
2019-02-10T21:54:21.830Z,83.67
2019-02-10T21:56:50.315Z,83.11
2019-02-10T21:59:18.721Z,83.47
2019-02-10T22:01:47.286Z,83.56
2019-02-10T22:04:15.685Z,83.57
2019-02-10T22:06:44.140Z,83.87
2019-02-10T22:09:12.734Z,84.42
2019-02-10T22:11:41.130Z,84.38
2019-02-10T22:14:09.525Z,84.52
2019-02-10T22:16:37.923Z,84.46
2019-02-10T22:19:06.631Z,84.44
2019-02-10T22:21:35.143Z,84.66
2019-02-10T22:24:03.529Z,84.45
2019-02-10T22:26:31.925Z,84.34
2019-02-10T22:29:00.348Z,84.50
2019-02-10T22:31:28.735Z,84.94
2019-02-10T22:33:57.130Z,85.13
2019-02-10T22:36:25.584Z,85.04
2019-02-10T22:38:53.985Z,85.10
2019-02-10T22:41:22.465Z,85.19
2019-02-10T22:43:50.868Z,85.09
2019-02-10T22:46:19.302Z,85.21
2019-02-10T22:48:47.680Z,85.33
2019-02-10T22:51:16.079Z,85.19
2019-02-10T22:53:44.471Z,85.25
2019-02-10T22:56:12.852Z,85.25
2019-02-10T22:58:41.719Z,85.06
2019-02-10T23:01:10.733Z,85.05
2019-02-10T23:03:39.402Z,85.07
2019-02-10T23:06:08.402Z,84.98
2019-02-10T23:08:37.187Z,85.07
2019-02-10T23:11:05.873Z,84.88
2019-02-10T23:13:34.338Z,85.06
2019-02-10T23:16:03.045Z,85.00
2019-02-10T23:18:31.432Z,84.94
2019-02-10T23:20:59.931Z,84.78
2019-02-10T23:23:28.389Z,84.85
2019-02-10T23:25:56.980Z,85.00
2019-02-10T23:28:25.952Z,85.16
2019-02-10T23:30:54.582Z,85.29
2019-02-10T23:33:22.977Z,85.44
2019-02-10T23:35:51.429Z,85.38
2019-02-10T23:38:20.084Z,85.39
2019-02-10T23:40:48.769Z,85.28
2019-02-10T23:43:17.174Z,85.19
2019-02-10T23:45:45.840Z,84.81
2019-02-10T23:48:14.219Z,84.74
2019-02-10T23:50:43.030Z,84.79
2019-02-10T23:53:11.498Z,84.78
2019-02-10T23:55:40.171Z,84.75
2019-02-10T23:58:08.961Z,84.81
